Station info - map view · info · telemetry · weather · raw · status · beacons · messages · bulletins · browse · moving · my account
Callsign, ship name or locator: Clear       
It is possible to search using wildcards (*?) after a prefix. Example: OH*
APRS station KD7IDY-14 - show graphs
Map loading...
Comment: 147.080MHz
Mic-E message: Custom 5
Location: 45°46.97' N 119°19.17' W - locator DN05IS17PV - show map - static map
4.2 miles South bearing 200° from Hermiston, Umatilla County, Oregon, United States [?]
4.9 miles West bearing 272° from Stanfield, Umatilla County, Oregon, United States
30.8 miles South bearing 197° from Kennewick, Benton County, Washington, United States
80.1 miles Southeast bearing 134° from Yakima, Yakima County, Washington, United States
Last position: 2018-09-19 22:31:55 EDT (51m3s ago)
2018-09-19 19:31:55 PDT local time at Hermiston, United States [?]
Altitude: 587 ft
Course: 284°
Speed: 66 MPH
Device: Kenwood: TM-D710 (rig)
Last path: KD7IDY-14>4F4VYW via ALAKES,WIDE1*,WIDE2-1,qAR,KB7DZR-10 (good)
Positions stored: 168810
Packet rate: 90 seconds between packets on average during 4419 seconds.
Stations near current position of KD7IDY-14 - show more
callsign distance last heard - EDT      callsign distance last heard - EDT
NB7O-13.7 miles 347°2018-09-19 23:06:27 NB7O-113.8 miles 347°2018-09-05 16:53:30
NB7O3.8 miles 347°2018-09-19 23:15:21 AA7AZ3.8 miles 34°2018-09-06 15:36:34
AA7AZ-13.9 miles 33°2018-09-19 23:09:12 KA7FVV-54.3 miles 19°2018-08-27 22:01:38
KA7FVV-74.5 miles 10°2018-09-12 21:42:37 CW24445.2 miles 202°2018-09-19 23:14:44
N7ZHG-105.4 miles 14°2018-09-19 23:03:39 KA7FVV-95.7 miles 14°2018-09-09 22:59:01
KF7WQ-95.8 miles 14°2018-09-19 19:07:41 DW04628.8 miles 353°2018-09-19 23:16:30
DWO4628.8 miles 353°2018-09-19 23:20:06 KD7IIW-1214.8 miles 325°2018-09-19 18:40:46
K7ODN-1015.7 miles 190°2018-09-19 23:03:39 KF7FMI-516.7 miles 353°2018-09-10 14:08:18
DW993116.7 miles 64°2018-09-19 23:19:24 CW107518.6 miles 283°2018-09-19 23:14:02
DW884419.4 miles 102°2018-09-19 23:21:45 EW449220.8 miles 84°2018-09-19 23:18:04
Stations which heard KD7IDY-14 directly on radio –
callsign pkts first heard - EDT last heard longest (tx => rx) longest at - EDT
LARCH 90 2018-09-03 14:55:02 2018-09-16 17:31:21 CN95CQ > CN85UR 23.5 miles 274° 2018-09-09 17:50:37
JUNIPR 28 2018-09-03 12:49:47 2018-09-16 19:58:15 CN95VR > CN95PR 25.2 miles 273° 2018-09-16 19:58:15
N7OKG-1 3 2018-09-18 15:09:48 2018-09-18 15:12:22 DN17IQ > DN18GC 29.4 miles 349° 2018-09-18 15:12:22
WA7RVV-8 4 2018-09-07 16:29:58 2018-09-12 15:38:59 DN17GP > DN18RC 52.6 miles 53° 2018-09-07 16:29:58
MISION 197 2018-09-04 11:57:16 2018-09-14 19:13:10 DN06JC > CN97TG 98.5 miles 325° 2018-09-11 19:03:43
WA2WA 358 2018-09-04 12:00:17 2018-09-19 22:18:53 DN05BT > DN06XB 91.0 miles 78° 2018-09-09 12:08:51
LOOKOT 1 2018-09-12 14:38:47 2018-09-12 14:38:47 DN17IP > DN27EK 78.6 miles 100° 2018-09-12 14:38:47
KC7ILK 1 2018-09-03 16:42:28 2018-09-03 16:42:28 CN85PN > CN85QP 7.6 miles 32° 2018-09-03 16:42:28
IDIOTV 49 2018-09-03 14:57:03 2018-09-16 17:23:08 CN85VN > CN85HP 58.9 miles 277° 2018-09-16 15:01:00
ALAKES 588 2018-09-03 11:47:49 2018-09-19 22:31:55 DN06QV > DN04VX 134.9 miles 172° 2018-09-05 12:49:10
REDMTN 8 2018-09-03 14:35:56 2018-09-16 15:13:03 CN85SM > CN95CW 41.2 miles 48° 2018-09-16 15:13:03
LOKOUT 41 2018-09-03 14:43:58 2018-09-16 18:08:36 CN85QM > CN85WT 29.7 miles 52° 2018-09-16 15:20:06
WA7DRE 334 2018-09-04 14:18:31 2018-09-19 16:05:43 DN17BI > DN17EN 19.0 miles 45° 2018-09-13 16:44:00
N7TNG-1 83 2018-09-03 17:15:34 2018-09-16 17:08:46 CN85RN > CN85PP 9.8 miles 311° 2018-09-16 15:16:04
NB7O-1 535 2018-09-03 11:42:48 2018-09-19 22:29:54 DN06JC > DN05HU 18.0 miles 198° 2018-09-17 11:50:49
BALDPK 13 2018-09-03 14:52:00 2018-09-16 15:26:09 CN85XO > CN85LJ 51.6 miles 254° 2018-09-09 14:37:14
NA7Q-9 163 2018-09-03 15:11:15 2018-09-16 17:14:54 CN85PN > CN85QL 6.5 miles 144° 2018-09-16 16:27:28
N7AWM 174 2018-09-03 12:59:48 2018-09-16 19:19:05 CN95FQ > CN95JP 18.7 miles 100° 2018-09-16 14:27:45
SADDLE 1 2018-09-16 17:06:46 2018-09-16 17:06:46 CN85PN > CN85HN 34.2 miles 272° 2018-09-16 17:06:46
W7DG-5 1 2018-09-16 15:17:04 2018-09-16 15:17:04 CN85RN > CN86ME 48.3 miles 336° 2018-09-16 15:17:04
KK7DS-1 21 2018-09-03 14:53:01 2018-09-09 16:58:59 CN85UN > CN85RL 12.2 miles 243° 2018-09-03 14:53:01
K7RMO-1 31 2018-09-03 15:16:17 2018-09-16 17:14:55 CN85UN > CN85MI 33.3 miles 245° 2018-09-16 15:05:02
MEISNR 15 2018-09-03 15:02:05 2018-09-16 15:31:11 CN85VN > CN85MX 48.4 miles 306° 2018-09-03 17:58:55
WA7DRE-11 746 2018-09-04 13:48:14 2018-09-19 16:27:49 DN07TC > DN17KN 68.5 miles 62° 2018-09-12 13:31:55
KF7FMI-10 486 2018-09-03 11:44:48 2018-09-19 22:22:53 CN95UR > DN06GD 48.4 miles 52° 2018-09-16 12:42:14
NPLNS 1 2018-09-16 17:06:45 2018-09-16 17:06:45 CN85PN > CN85MP 16.5 miles 290° 2018-09-16 17:06:45

Only position packets which were originated by the station are shown here. The range statistics show some extra long hops, because some digipeaters do not correctly add themselves to the digipeater path. Please check the raw packets.
About this site
This page shows real-time information collected from the Automatic Position Reporting System Internet network (APRS-IS). APRS is used by amateur (ham) radio operators to transmit real-time position information, weather data, telemetry and messages over the radio. A vehicle equipped with a GPS receiver, a VHF transmitter or HF transceiver and a small computer device called a tracker transmits it's location, speed and course in a small data packet, which is then received by a nearby iGate receiving site which forwards the packet on the Internet. Systems connected to the Internet can send information on the APRS-IS without a radio transmitter, or collect and display information transmitted anywhere in the world.
FAQ · Blog · Discussion group · Linking to aprs.fi · AIS sites · Service status · Database statistics · Advertising on aprs.fi · Technical details · API · Change log · Planned changes · Credits and thanks · Terms Of Service · iPhone/iPad APRS